Time;durP1;ratioP1;P1;durP2;ratioP2;P2;SDS_P1;SDS_P2;PMS_P1;PMS_P2;Temp;Humidity;BMP_temperature;BMP_pressure;BME280_temperature;BME280_humidity;BME280_pressure;Samples;Min_cycle;Max_cycle;Signal;HPM_P1;HPM_P2
2022/07/14 00:02:19;;;;;;;9.30;2.58;;;15.60;99.90;;;;;;5037659;28;20501;-83
2022/07/14 00:04:44;;;;;;;10.15;2.65;;;15.50;99.90;;;;;;5036527;28;20127;-83
2022/07/14 00:07:10;;;;;;;8.85;2.92;;;15.60;99.90;;;;;;5038954;28;20037;-83
2022/07/14 00:09:37;;;;;;;8.77;2.50;;;15.50;99.90;;;;;;5038177;28;20489;-84
2022/07/14 00:12:03;;;;;;;9.18;3.08;;;15.40;99.90;;;;;;5035326;28;20044;-83
2022/07/14 00:14:29;;;;;;;9.57;2.78;;;15.30;99.90;;;;;;5019355;28;20065;-84
2022/07/14 00:16:55;;;;;;;8.30;2.78;;;15.30;99.90;;;;;;5038671;28;20048;-83
2022/07/14 00:19:20;;;;;;;9.90;2.83;;;15.20;99.90;;;;;;5019703;28;20037;-84
2022/07/14 00:21:46;;;;;;;8.68;2.58;;;15.20;99.90;;;;;;5037567;28;20033;-83
2022/07/14 00:24:12;;;;;;;11.17;2.80;;;15.20;99.90;;;;;;5038422;28;20121;-83
2022/07/14 00:26:39;;;;;;;9.80;2.65;;;15.20;99.90;;;;;;5022490;28;20350;-84
2022/07/14 00:29:06;;;;;;;7.78;2.88;;;15.20;99.90;;;;;;5022292;28;20036;-82
2022/07/14 00:31:31;;;;;;;;;;;15.20;99.90;;;;;;5038900;28;20163;-84
2022/07/14 00:33:58;;;;;;;10.00;3.15;;;15.20;99.90;;;;;;5053819;28;19960;-82
2022/07/14 00:36:26;;;;;;;8.35;2.67;;;15.10;99.90;;;;;;5038834;28;20041;-83
2022/07/14 00:38:52;;;;;;;12.07;3.10;;;15.10;99.90;;;;;;5035223;28;20041;-83
2022/07/14 00:41:18;;;;;;;9.45;2.53;;;15.10;99.90;;;;;;5035682;28;20037;-83
2022/07/14 00:43:44;;;;;;;12.15;2.85;;;15.10;99.90;;;;;;5048675;28;20547;-83
2022/07/14 00:46:10;;;;;;;8.60;2.97;;;15.10;99.90;;;;;;5021448;28;20033;-84
2022/07/14 00:48:35;;;;;;;9.93;2.72;;;15.10;99.90;;;;;;5037841;28;20326;-84
2022/07/14 00:51:01;;;;;;;7.25;2.80;;;15.10;99.90;;;;;;5035346;28;20099;-83
2022/07/14 00:53:27;;;;;;;7.65;2.67;;;15.00;99.90;;;;;;5035932;28;20029;-84
2022/07/14 00:55:52;;;;;;;10.27;2.78;;;15.00;99.90;;;;;;5037813;28;20033;-84
2022/07/14 00:58:18;;;;;;;7.60;2.67;;;15.00;99.90;;;;;;5037891;28;20045;-84
2022/07/14 01:00:44;;;;;;;7.47;2.75;;;14.90;99.90;;;;;;5036019;28;20374;-83
2022/07/14 01:03:10;;;;;;;7.15;3.05;;;15.00;99.90;;;;;;5036743;28;20442;-84
2022/07/14 01:05:37;;;;;;;8.68;2.95;;;15.00;99.90;;;;;;5038742;28;20041;-83
2022/07/14 01:08:03;;;;;;;8.93;2.70;;;14.90;99.90;;;;;;5037310;28;20038;-83
2022/07/14 01:10:28;;;;;;;7.82;3.05;;;14.90;99.90;;;;;;5018866;28;20056;-83
2022/07/14 01:12:59;;;;;;;9.80;3.38;;;14.90;99.90;;;;;;5017729;28;20124;-83
2022/07/14 01:15:25;;;;;;;7.85;2.95;;;14.80;99.90;;;;;;5017755;28;20060;-84
2022/07/14 01:17:51;;;;;;;5.03;2.50;;;14.80;99.90;;;;;;5015431;28;20046;-82
2022/07/14 01:20:17;;;;;;;6.50;2.70;;;14.70;99.90;;;;;;5018710;28;20041;-83
2022/07/14 01:22:46;;;;;;;7.50;2.83;;;14.70;99.90;;;;;;5033309;28;20037;-82
2022/07/14 01:25:13;;;;;;;8.00;2.33;;;14.60;99.90;;;;;;5035126;28;20048;-82
2022/07/14 01:27:39;;;;;;;6.40;2.45;;;14.60;99.90;;;;;;5032697;28;20049;-83
2022/07/14 01:30:06;;;;;;;7.13;2.50;;;14.60;99.90;;;;;;5033798;28;20546;-83
2022/07/14 01:32:32;;;;;;;5.45;2.53;;;14.60;99.90;;;;;;5033939;28;20048;-85
2022/07/14 01:34:59;;;;;;;5.50;2.45;;;14.60;99.90;;;;;;5034622;28;20029;-82
2022/07/14 01:37:25;;;;;;;8.65;2.85;;;14.50;99.90;;;;;;5015942;28;20041;-83
2022/07/14 01:39:51;;;;;;;7.63;2.80;;;14.50;99.90;;;;;;5032819;28;20072;-84
2022/07/14 01:42:17;;;;;;;6.03;2.50;;;14.50;99.90;;;;;;5035154;28;20492;-83
2022/07/14 01:44:43;;;;;;;7.93;2.70;;;14.50;99.90;;;;;;5033785;28;20049;-84
2022/07/14 01:47:09;;;;;;;7.53;2.90;;;14.50;99.90;;;;;;5035059;28;20102;-84
2022/07/14 01:49:35;;;;;;;9.30;3.10;;;14.50;99.90;;;;;;5034175;28;20037;-83
2022/07/14 01:52:01;;;;;;;6.07;2.78;;;14.40;99.90;;;;;;5044712;28;20037;-83
2022/07/14 01:54:26;;;;;;;7.33;3.00;;;14.40;99.90;;;;;;5032118;28;20048;-84
2022/07/14 01:56:52;;;;;;;7.95;2.60;;;14.30;99.90;;;;;;5033834;28;20339;-83
2022/07/14 01:59:18;;;;;;;8.65;3.10;;;14.30;99.90;;;;;;5031871;28;20037;-83
2022/07/14 02:01:44;;;;;;;9.40;3.08;;;14.20;99.90;;;;;;5018082;28;20040;-82
2022/07/14 02:04:12;;;;;;;6.95;2.70;;;14.20;99.90;;;;;;5033086;28;20059;-83
2022/07/14 02:06:52;;;;;;;6.30;2.40;;;14.10;99.90;;;;;;5031450;28;20056;-83
2022/07/14 02:09:22;;;;;;;5.55;2.42;;;14.10;99.90;;;;;;5034537;28;20040;-83
2022/07/14 02:14:34;;;;;;;7.55;2.58;;;14.00;99.90;;;;;;5031189;28;20159;-85
2022/07/14 02:17:00;;;;;;;5.70;2.20;;;14.00;99.90;;;;;;5031240;28;20144;-83
2022/07/14 02:19:26;;;;;;;4.95;2.47;;;13.90;99.90;;;;;;5034838;28;20135;-83
2022/07/14 02:21:53;;;;;;;5.85;2.28;;;13.90;99.90;;;;;;5033891;28;20068;-83
2022/07/14 02:24:21;;;;;;;6.78;2.88;;;13.80;99.90;;;;;;5031651;28;20037;-83
2022/07/14 02:26:50;;;;;;;4.32;2.60;;;13.80;99.90;;;;;;5030636;28;20048;-84
2022/07/14 02:29:16;;;;;;;8.20;2.33;;;13.80;99.90;;;;;;5018141;28;20075;-83
2022/07/14 02:31:44;;;;;;;6.45;2.63;;;13.70;99.90;;;;;;5034417;28;20686;-83
2022/07/14 02:34:10;;;;;;;7.07;2.80;;;13.70;99.90;;;;;;5038169;28;20126;-84
2022/07/14 02:36:36;;;;;;;6.43;2.70;;;13.70;99.90;;;;;;5041860;28;20036;-83
2022/07/14 02:39:03;;;;;;;6.07;2.60;;;13.70;99.90;;;;;;5000403;28;20035;-83
2022/07/14 02:41:29;;;;;;;6.07;2.60;;;13.60;99.90;;;;;;5030534;28;20280;-83
2022/07/14 02:43:54;;;;;;;7.93;2.55;;;13.60;99.90;;;;;;5030054;28;20354;-83
2022/07/14 02:46:20;;;;;;;5.22;1.95;;;13.60;99.90;;;;;;5033415;28;20119;-83
2022/07/14 02:48:46;;;;;;;6.22;2.35;;;13.60;99.90;;;;;;5014900;28;20470;-83
2022/07/14 02:51:12;;;;;;;7.05;2.25;;;13.50;99.90;;;;;;4999183;28;20036;-84
2022/07/14 02:53:38;;;;;;;5.93;2.22;;;13.60;99.90;;;;;;5017628;28;20389;-83
2022/07/14 02:56:07;;;;;;;6.93;2.50;;;13.50;99.90;;;;;;5016258;28;20091;-84
2022/07/14 02:58:33;;;;;;;4.68;2.22;;;13.50;99.90;;;;;;4998733;28;20099;-83
2022/07/14 03:00:59;;;;;;;;;;;13.50;99.90;;;;;;5032162;28;20048;-84
2022/07/14 03:03:25;;;;;;;6.63;2.40;;;13.40;99.90;;;;;;5046949;28;19921;-83
2022/07/14 03:05:51;;;;;;;7.63;2.63;;;13.40;99.90;;;;;;5028300;28;20048;-83
2022/07/14 03:08:17;;;;;;;5.18;2.50;;;13.40;99.90;;;;;;5015665;28;20123;-83
2022/07/14 03:10:43;;;;;;;6.35;2.42;;;13.40;99.90;;;;;;5032429;28;20112;-84
2022/07/14 03:13:09;;;;;;;10.43;3.30;;;13.40;99.90;;;;;;5028112;28;20046;-85
2022/07/14 03:15:36;;;;;;;4.75;2.38;;;13.30;99.90;;;;;;5031658;28;20099;-84
2022/07/14 03:18:02;;;;;;;5.65;2.17;;;13.30;99.90;;;;;;5031490;28;20033;-83
2022/07/14 03:20:28;;;;;;;4.40;2.25;;;13.30;99.90;;;;;;5030078;28;20075;-83
2022/07/14 03:22:54;;;;;;;5.13;2.28;;;13.30;99.90;;;;;;5029560;28;20033;-85
2022/07/14 03:25:20;;;;;;;6.05;2.25;;;13.20;99.90;;;;;;5032733;28;20049;-84
2022/07/14 03:27:46;;;;;;;;;;;13.30;99.90;;;;;;5031546;28;20490;-82
2022/07/14 03:30:13;;;;;;;6.72;2.00;;;13.20;99.90;;;;;;5049002;28;19928;-83
2022/07/14 03:32:39;;;;;;;6.30;2.05;;;13.20;99.90;;;;;;5016868;28;20455;-84
2022/07/14 03:35:07;;;;;;;6.93;2.60;;;13.20;99.90;;;;;;4998466;28;20052;-83
2022/07/14 03:37:33;;;;;;;3.95;2.10;;;13.20;99.90;;;;;;5030219;28;20034;-84
2022/07/14 03:39:59;;;;;;;6.07;2.45;;;13.20;99.90;;;;;;5031115;28;20497;-84
2022/07/14 03:42:25;;;;;;;3.92;2.63;;;13.20;99.90;;;;;;5032878;28;20136;-84
2022/07/14 03:44:51;;;;;;;4.88;2.50;;;13.20;99.90;;;;;;5013690;28;20033;-85
2022/07/14 03:47:16;;;;;;;6.00;2.05;;;13.20;99.90;;;;;;5032404;28;20037;-84
2022/07/14 03:49:42;;;;;;;6.78;2.60;;;13.20;99.90;;;;;;5031626;28;20037;-83
2022/07/14 03:52:09;;;;;;;5.45;2.40;;;13.20;99.90;;;;;;5030305;28;20067;-82
2022/07/14 03:54:35;;;;;;;6.80;2.63;;;13.10;99.90;;;;;;5032717;28;20044;-83
2022/07/14 03:57:00;;;;;;;4.72;2.13;;;13.10;99.90;;;;;;5029209;28;20040;-82
2022/07/14 03:59:26;;;;;;;4.60;2.37;;;13.00;99.90;;;;;;5030646;28;20124;-83
2022/07/14 04:01:52;;;;;;;6.73;2.30;;;13.10;99.90;;;;;;5014646;28;20882;-83
2022/07/14 04:04:17;;;;;;;4.72;2.03;;;13.00;99.90;;;;;;5014408;28;20389;-85
2022/07/14 04:06:43;;;;;;;6.90;2.47;;;13.00;99.90;;;;;;5029595;28;20064;-85
2022/07/14 04:09:08;;;;;;;4.93;1.87;;;12.90;99.90;;;;;;5031816;28;20048;-85
2022/07/14 04:11:34;;;;;;;3.57;1.90;;;13.00;99.90;;;;;;5013542;28;20292;-83
2022/07/14 04:14:00;;;;;;;3.83;1.87;;;13.00;99.90;;;;;;5014394;28;20053;-84
2022/07/14 04:16:25;;;;;;;4.03;1.80;;;13.00;99.90;;;;;;5032090;28;20280;-83
2022/07/14 04:18:51;;;;;;;6.27;2.00;;;13.00;99.90;;;;;;5032990;28;20443;-84
2022/07/14 04:21:17;;;;;;;4.20;1.77;;;13.00;99.90;;;;;;5012975;28;20303;-84
2022/07/14 04:23:43;;;;;;;6.07;2.03;;;13.00;99.90;;;;;;5031266;28;20041;-83
2022/07/14 04:26:09;;;;;;;;;;;13.00;99.90;;;;;;5016405;28;20333;-83
2022/07/14 04:28:35;;;;;;;7.30;2.20;;;13.00;99.90;;;;;;5032670;28;20344;-83
2022/07/14 04:31:02;;;;;;;6.30;2.45;;;13.00;99.90;;;;;;5032929;28;20080;-84
2022/07/14 04:33:28;;;;;;;9.23;2.67;;;13.00;99.90;;;;;;5033447;28;20073;-83
2022/07/14 04:35:54;;;;;;;6.57;2.80;;;13.00;99.90;;;;;;5012926;28;20080;-83
2022/07/14 04:38:20;;;;;;;6.78;2.60;;;12.90;99.90;;;;;;5030056;28;20103;-84
2022/07/14 04:40:47;;;;;;;7.57;2.78;;;12.90;99.90;;;;;;5031812;28;20506;-84
2022/07/14 04:43:13;;;;;;;10.27;3.38;;;13.00;99.90;;;;;;5028428;28;20041;-83
2022/07/14 04:45:39;;;;;;;6.18;2.53;;;12.90;99.90;;;;;;5029167;28;20079;-83
2022/07/14 04:48:05;;;;;;;6.43;2.83;;;12.90;99.90;;;;;;5031634;28;20048;-83
2022/07/14 04:53:14;;;;;;;5.55;2.72;;;12.90;99.90;;;;;;5033666;28;20124;-83
2022/07/14 04:55:41;;;;;;;7.20;3.40;;;12.90;99.90;;;;;;5018474;28;20120;-84
2022/07/14 04:58:06;;;;;;;4.72;2.95;;;13.00;99.90;;;;;;5034370;28;20376;-84
2022/07/14 05:00:32;;;;;;;9.32;3.17;;;13.00;99.90;;;;;;5035587;28;20123;-85
2022/07/14 05:02:58;;;;;;;7.43;3.40;;;13.00;99.90;;;;;;5033582;28;20037;-84
2022/07/14 05:05:24;;;;;;;7.50;3.00;;;13.10;99.90;;;;;;5034398;28;20791;-84
2022/07/14 05:07:50;;;;;;;9.63;2.88;;;13.20;99.90;;;;;;5017124;28;20279;-84
2022/07/14 05:10:15;;;;;;;8.63;2.77;;;13.20;99.90;;;;;;5032221;28;20085;-84
2022/07/14 05:12:41;;;;;;;13.17;2.80;;;13.20;99.90;;;;;;5034501;28;20284;-84
2022/07/14 05:15:07;;;;;;;5.43;2.88;;;13.30;99.90;;;;;;5032719;28;20072;-83
2022/07/14 05:17:33;;;;;;;6.00;2.50;;;13.40;99.90;;;;;;5031162;28;20140;-83
2022/07/14 05:19:58;;;;;;;5.57;2.77;;;13.50;99.90;;;;;;5033353;28;20124;-84
2022/07/14 05:22:25;;;;;;;9.90;3.03;;;13.60;99.90;;;;;;5018124;28;20079;-84
2022/07/14 05:24:51;;;;;;;7.05;2.63;;;13.70;99.90;;;;;;5017203;28;20044;-86
2022/07/14 05:27:17;;;;;;;8.77;2.65;;;13.80;99.90;;;;;;5017578;28;20072;-84
2022/07/14 05:29:42;;;;;;;5.97;2.25;;;13.80;99.90;;;;;;5034257;28;20493;-84
2022/07/14 05:32:08;;;;;;;6.40;2.58;;;14.00;99.90;;;;;;5032841;28;20041;-84
2022/07/14 05:34:44;;;;;;;7.95;2.85;;;14.10;99.90;;;;;;5033573;28;20168;-84
2022/07/14 05:37:10;;;;;;;7.03;2.60;;;14.30;99.90;;;;;;5034134;28;20041;-84
2022/07/14 05:39:36;;;;;;;;;;;14.50;99.90;;;;;;5034627;28;20500;-88
2022/07/14 05:42:02;;;;;;;7.07;2.50;;;14.70;99.90;;;;;;5033724;28;19917;-84
2022/07/14 05:44:28;;;;;;;8.05;2.53;;;14.90;99.90;;;;;;5018170;28;20041;-85
2022/07/14 05:46:54;;;;;;;7.63;2.50;;;15.20;99.90;;;;;;5034587;28;20370;-85
2022/07/14 05:49:19;;;;;;;5.80;2.42;;;15.30;99.90;;;;;;5033119;28;20041;-83
2022/07/14 05:51:45;;;;;;;4.82;1.98;;;15.50;99.90;;;;;;5033166;28;20037;-85
2022/07/14 05:54:11;;;;;;;4.03;1.73;;;15.70;99.90;;;;;;5033960;28;20044;-84
2022/07/14 05:56:36;;;;;;;6.10;1.75;;;15.90;99.90;;;;;;5033836;28;20104;-83
2022/07/14 05:59:02;;;;;;;6.35;2.05;;;16.10;99.90;;;;;;5032307;28;20044;-84
2022/07/14 06:01:27;;;;;;;5.45;1.73;;;16.20;99.90;;;;;;5035238;28;20029;-83
2022/07/14 06:03:59;;;;;;;5.63;1.75;;;16.50;99.90;;;;;;5034322;28;20060;-85
2022/07/14 06:06:24;;;;;;;5.80;1.52;;;17.00;99.90;;;;;;5033781;28;20134;-84
2022/07/14 06:08:50;;;;;;;6.28;1.20;;;17.60;99.90;;;;;;5016399;28;20033;-84
2022/07/14 06:11:16;;;;;;;4.90;1.33;;;18.10;99.90;;;;;;5016438;28;20068;-84
2022/07/14 06:13:45;;;;;;;6.32;1.35;;;18.50;99.90;;;;;;5033834;28;20104;-84
2022/07/14 06:16:12;;;;;;;3.53;0.85;;;18.90;99.90;;;;;;5033065;28;20138;-84
2022/07/14 06:18:37;;;;;;;5.13;1.05;;;19.40;99.90;;;;;;5031641;28;20041;-85
2022/07/14 06:21:10;;;;;;;2.88;0.80;;;19.80;99.90;;;;;;5018111;28;20520;-83
2022/07/14 06:23:36;;;;;;;5.15;1.17;;;20.10;99.90;;;;;;5016708;28;20067;-84
2022/07/14 06:26:10;;;;;;;5.22;0.70;;;20.30;99.90;;;;;;5031462;28;20040;-84
2022/07/14 06:28:36;;;;;;;4.95;0.90;;;20.50;99.90;;;;;;5033197;28;20048;-85
2022/07/14 06:31:02;;;;;;;;;;;20.60;99.90;;;;;;5017221;28;20034;-83
2022/07/14 06:33:28;;;;;;;7.47;1.23;;;20.50;99.90;;;;;;5043412;28;19956;-85
2022/07/14 06:35:53;;;;;;;4.22;0.93;;;20.50;99.90;;;;;;5016375;28;20520;-84
2022/07/14 06:38:19;;;;;;;5.90;0.98;;;20.60;99.90;;;;;;5016630;28;20048;-85
2022/07/14 06:40:45;;;;;;;3.28;0.63;;;20.60;99.90;;;;;;5015605;28;20034;-85
2022/07/14 06:43:10;;;;;;;7.85;1.23;;;20.80;99.90;;;;;;5032459;28;20493;-84
2022/07/14 06:45:36;;;;;;;4.28;0.77;;;21.10;99.90;;;;;;5032708;28;20047;-84
2022/07/14 06:48:02;;;;;;;4.00;0.73;;;21.30;99.90;;;;;;5031759;28;20048;-83
2022/07/14 06:50:28;;;;;;;4.07;0.70;;;21.40;99.90;;;;;;5016809;28;20075;-82
2022/07/14 06:52:54;;;;;;;4.57;0.95;;;21.50;99.90;;;;;;5032412;28;20041;-84
2022/07/14 06:55:20;;;;;;;;;;;21.70;99.90;;;;;;5033119;28;20112;-84
2022/07/14 06:57:45;;;;;;;4.65;0.60;;;21.70;99.90;;;;;;5033137;28;19975;-85
2022/07/14 07:00:12;;;;;;;4.85;0.50;;;21.70;99.90;;;;;;5031894;28;20508;-84
2022/07/14 07:02:40;;;;;;;3.72;0.40;;;21.90;99.90;;;;;;5033199;28;20048;-85
2022/07/14 07:07:55;;;;;;;3.78;0.50;;;21.30;99.90;;;;;;5031572;28;20493;-85
2022/07/14 07:10:21;;;;;;;2.70;0.57;;;21.50;99.90;;;;;;5028478;28;20041;-85
2022/07/14 07:12:46;;;;;;;3.80;0.50;;;21.70;99.90;;;;;;5015413;28;20041;-85
2022/07/14 07:15:12;;;;;;;2.83;0.40;;;21.80;99.90;;;;;;5014675;28;20053;-85
2022/07/14 07:17:38;;;;;;;4.05;0.40;;;21.70;99.90;;;;;;5037560;28;20120;-85
2022/07/14 07:20:04;;;;;;;;;;;21.80;99.90;;;;;;5015635;28;20138;-84
2022/07/14 07:22:30;;;;;;;3.63;0.60;;;21.30;99.90;;;;;;5031932;28;19917;-84
2022/07/14 07:24:56;;;;;;;2.40;0.32;;;21.50;99.90;;;;;;5031158;28;20067;-85
2022/07/14 07:27:22;;;;;;;2.78;0.40;;;21.70;99.90;;;;;;5031553;28;20033;-84
2022/07/14 07:29:47;;;;;;;;;;;21.50;99.90;;;;;;5019535;28;20038;-86
2022/07/14 07:32:13;;;;;;;1.83;0.25;;;21.30;99.90;;;;;;5036346;28;19917;-84
2022/07/14 07:34:39;;;;;;;2.30;0.30;;;21.20;99.90;;;;;;5014814;28;20093;-84
2022/07/14 07:37:05;;;;;;;2.42;0.25;;;21.40;99.90;;;;;;5031394;28;20041;-84
2022/07/14 07:39:31;;;;;;;2.13;0.30;;;21.40;99.90;;;;;;5031264;28;20048;-85
2022/07/14 07:42:00;;;;;;;2.45;0.30;;;21.60;99.90;;;;;;5014505;28;20124;-85
2022/07/14 07:44:30;;;;;;;2.95;0.52;;;21.70;99.90;;;;;;5034925;28;20049;-84
2022/07/14 07:46:56;;;;;;;3.00;0.30;;;21.60;99.90;;;;;;5032625;28;20079;-85
2022/07/14 07:49:22;;;;;;;;;;;21.50;99.90;;;;;;5032593;28;20764;-85
2022/07/14 07:51:47;;;;;;;2.80;0.35;;;21.70;99.90;;;;;;5048222;28;20103;-86
2022/07/14 07:54:13;;;;;;;3.38;0.30;;;21.80;99.90;;;;;;5032524;28;20175;-85
2022/07/14 07:56:39;;;;;;;;;;;21.80;99.90;;;;;;5030981;28;20041;-85
2022/07/14 07:59:05;;;;;;;3.83;0.43;;;21.80;99.90;;;;;;5047700;28;19952;-86
2022/07/14 08:01:31;;;;;;;2.22;0.30;;;22.00;99.90;;;;;;5032412;28;20053;-86
2022/07/14 08:03:57;;;;;;;;;;;22.30;99.90;;;;;;5014591;28;20041;-86
2022/07/14 08:06:22;;;;;;;1.77;0.30;;;22.50;99.90;;;;;;5031004;28;20327;-84
2022/07/14 08:08:48;;;;;;;;;;;22.80;99.90;;;;;;5031508;28;20052;-85
2022/07/14 08:11:14;;;;;;;3.35;0.30;;;22.80;99.90;;;;;;5013406;28;19916;-84
2022/07/14 08:13:39;;;;;;;;;;;22.90;99.90;;;;;;5034546;28;20096;-84
2022/07/14 08:16:05;;;;;;;1.88;0.30;;;22.80;99.90;;;;;;5031315;28;19923;-85
2022/07/14 08:18:31;;;;;;;2.10;0.40;;;22.60;99.90;;;;;;5013976;28;20067;-85
2022/07/14 08:20:56;;;;;;;3.35;0.55;;;22.60;99.90;;;;;;5016346;28;20560;-84
2022/07/14 08:23:22;;;;;;;0.60;0.10;;;22.80;99.90;;;;;;5017898;28;20034;-85
2022/07/14 08:25:48;;;;;;;;;;;22.60;99.90;;;;;;5017601;28;20067;-85
2022/07/14 08:28:13;;;;;;;2.85;0.30;;;22.60;99.90;;;;;;5035476;28;19917;-85
2022/07/14 08:30:39;;;;;;;;;;;23.10;99.90;;;;;;5034833;28;20098;-83
2022/07/14 08:33:05;;;;;;;5.38;0.50;;;23.30;99.90;;;;;;5042015;28;19982;-85
2022/07/14 08:35:35;;;;;;;;;;;23.30;99.90;;;;;;5042662;28;20047;-85
2022/07/14 08:38:01;;;;;;;3.80;0.30;;;23.50;99.60;;;;;;5035631;28;19921;-85
2022/07/14 08:40:27;;;;;;;0.75;0.13;;;23.50;99.90;;;;;;5035238;28;20065;-85
2022/07/14 08:42:53;;;;;;;;;;;23.60;99.90;;;;;;5020620;28;20117;-85
2022/07/14 08:45:26;;;;;;;1.67;0.30;;;23.40;98.90;;;;;;5034685;28;19920;-85
2022/07/14 08:47:52;;;;;;;3.13;0.32;;;23.60;99.80;;;;;;5033752;28;20045;-84
2022/07/14 08:50:20;;;;;;;1.75;0.38;;;23.80;99.50;;;;;;5017380;28;20382;-84
2022/07/14 08:52:47;;;;;;;2.03;0.30;;;23.90;99.60;;;;;;5017667;28;20037;-84
2022/07/14 08:55:16;;;;;;;2.05;0.20;;;24.00;98.90;;;;;;5036195;28;20389;-84
2022/07/14 08:57:42;;;;;;;2.85;0.25;;;24.20;99.30;;;;;;5034722;28;20034;-85
2022/07/14 09:00:11;;;;;;;2.47;0.50;;;24.10;98.90;;;;;;5018779;28;20544;-84
2022/07/14 09:02:47;;;;;;;2.83;0.30;;;24.10;99.20;;;;;;5034981;28;20041;-85
2022/07/14 09:05:13;;;;;;;3.87;0.50;;;23.90;99.50;;;;;;5018167;28;20036;-85
2022/07/14 09:07:39;;;;;;;2.40;0.35;;;23.90;99.40;;;;;;5022419;28;20587;-85
2022/07/14 09:10:07;;;;;;;;;;;23.80;99.80;;;;;;5018947;28;20112;-84
2022/07/14 09:12:33;;;;;;;1.67;0.47;;;23.70;99.30;;;;;;5035067;28;20358;-85
2022/07/14 09:18:17;;;;;;;2.88;0.30;;;23.50;99.20;;;;;;5035378;28;20037;-84
2022/07/14 09:20:43;;;;;;;4.97;0.30;;;23.70;99.90;;;;;;5033551;28;20053;-85
2022/07/14 09:23:09;;;;;;;;;;;23.50;99.90;;;;;;5034704;28;20041;-84
2022/07/14 09:25:35;;;;;;;2.17;0.30;;;23.10;99.90;;;;;;5035053;28;20000;-85
2022/07/14 09:28:01;;;;;;;;;;;23.00;99.90;;;;;;5036120;28;20084;-85
2022/07/14 09:30:28;;;;;;;1.42;0.20;;;22.80;99.90;;;;;;5032623;28;19921;-85
2022/07/14 09:32:56;;;;;;;1.52;0.40;;;22.90;99.90;;;;;;5017561;28;20033;-85
2022/07/14 09:35:37;;;;;;;2.90;0.52;;;23.10;99.90;;;;;;5030052;28;20053;-85
2022/07/14 09:38:20;;;;;;;1.67;0.20;;;23.30;99.20;;;;;;5034359;28;20048;-85
2022/07/14 09:40:47;;;;;;;1.58;0.30;;;23.40;99.40;;;;;;5030239;28;20037;-85
2022/07/14 09:43:14;;;;;;;2.05;0.30;;;23.80;99.90;;;;;;5032739;28;20049;-85
2022/07/14 09:45:42;;;;;;;1.77;0.20;;;24.10;99.90;;;;;;5033640;28;20482;-85
2022/07/14 09:48:13;;;;;;;3.50;0.30;;;24.50;99.90;;;;;;5016704;28;20114;-84
2022/07/14 09:51:01;;;;;;;1.27;0.20;;;24.50;99.00;;;;;;5014557;28;20191;-84
2022/07/14 09:53:31;;;;;;;3.08;0.30;;;24.80;98.70;;;;;;5034206;28;20481;-84
2022/07/14 09:56:03;;;;;;;1.80;0.20;;;24.80;98.40;;;;;;5023606;28;20057;-85
2022/07/14 09:58:44;;;;;;;2.05;0.30;;;25.00;98.90;;;;;;5033272;28;20102;-84
2022/07/14 10:01:16;;;;;;;1.75;0.30;;;24.90;98.50;;;;;;5032841;28;20552;-84
2022/07/14 10:03:45;;;;;;;1.85;0.20;;;24.70;98.90;;;;;;5034584;28;20084;-84
2022/07/14 10:06:12;;;;;;;3.10;0.35;;;24.30;98.60;;;;;;5033845;28;20047;-85
2022/07/14 10:08:45;;;;;;;2.28;0.20;;;24.40;98.10;;;;;;5032416;28;20041;-85
2022/07/14 10:11:11;;;;;;;1.38;0.30;;;24.30;98.10;;;;;;5032267;28;20136;-85
2022/07/14 10:13:38;;;;;;;1.25;0.30;;;24.00;98.20;;;;;;5033546;28;20108;-84
2022/07/14 10:16:04;;;;;;;1.35;0.20;;;24.00;98.90;;;;;;4999837;28;20060;-85
2022/07/14 10:18:32;;;;;;;1.67;0.38;;;24.10;99.20;;;;;;5016377;28;20494;-85
2022/07/14 10:20:59;;;;;;;1.23;0.40;;;24.20;99.40;;;;;;5032396;28;20036;-85
2022/07/14 10:23:26;;;;;;;1.90;0.32;;;24.20;98.20;;;;;;5019045;28;20107;-84
2022/07/14 10:25:54;;;;;;;1.05;0.20;;;24.10;98.40;;;;;;5033443;28;20409;-85
2022/07/14 10:28:21;;;;;;;2.83;0.63;;;23.90;98.40;;;;;;5014978;28;20043;-84
2022/07/14 10:31:04;;;;;;;2.13;0.20;;;23.90;98.70;;;;;;5033411;28;20049;-84
2022/07/14 10:33:50;;;;;;;1.60;0.25;;;23.80;99.00;;;;;;5030634;28;20121;-85
2022/07/14 10:36:22;;;;;;;2.80;0.22;;;23.80;98.40;;;;;;5031197;28;20037;-85
2022/07/14 10:39:00;;;;;;;2.90;0.30;;;23.60;98.80;;;;;;5036566;28;20048;-84
2022/07/14 10:41:34;;;;;;;1.55;0.20;;;23.90;99.10;;;;;;5035468;28;20527;-84
2022/07/14 10:44:06;;;;;;;0.98;0.13;;;24.00;99.00;;;;;;5030386;28;20103;-85
2022/07/14 10:46:44;;;;;;;2.70;0.40;;;24.10;98.10;;;;;;5019255;28;20038;-85
2022/07/14 10:49:12;;;;;;;1.85;0.30;;;24.20;99.00;;;;;;5018590;28;20048;-85
2022/07/14 10:51:46;;;;;;;2.38;0.30;;;24.20;98.90;;;;;;5032640;28;20036;-85
2022/07/14 10:54:21;;;;;;;2.53;0.40;;;23.90;98.80;;;;;;5019655;28;20043;-84
2022/07/14 10:56:48;;;;;;;3.78;0.52;;;23.70;98.80;;;;;;5031972;28;20401;-84
2022/07/14 10:59:26;;;;;;;2.72;0.32;;;23.50;99.20;;;;;;5032724;28;20442;-85
2022/07/14 11:02:13;;;;;;;3.88;0.35;;;23.40;98.80;;;;;;5029801;28;20042;-85
2022/07/14 11:05:08;;;;;;;2.80;0.20;;;23.10;99.30;;;;;;5031864;28;20056;-85
2022/07/14 11:07:58;;;;;;;4.43;0.40;;;23.00;99.50;;;;;;5036927;28;20052;-85
2022/07/14 11:10:24;;;;;;;2.95;0.50;;;22.90;99.90;;;;;;5030333;28;20053;-85
2022/07/14 11:12:59;;;;;;;2.15;0.40;;;22.90;99.40;;;;;;5032915;28;20095;-84
2022/07/14 11:15:42;;;;;;;4.00;0.20;;;22.90;99.90;;;;;;5030067;28;20049;-85
2022/07/14 11:18:17;;;;;;;2.92;0.40;;;22.90;99.90;;;;;;5014899;28;20047;-85
2022/07/14 11:21:12;;;;;;;2.00;0.43;;;22.90;99.50;;;;;;5030580;28;20041;-85
2022/07/14 11:23:54;;;;;;;3.72;0.40;;;22.70;99.70;;;;;;5030457;28;20037;-85
2022/07/14 11:26:35;;;;;;;3.25;0.45;;;22.70;99.80;;;;;;5015953;28;20076;-84
2022/07/14 11:29:03;;;;;;;1.60;0.30;;;22.70;99.90;;;;;;5031680;28;20034;-86
2022/07/14 11:31:44;;;;;;;2.92;0.47;;;22.90;98.90;;;;;;5030717;28;20132;-85
2022/07/14 11:37:14;;;;;;;1.27;0.30;;;23.70;98.70;;;;;;5018246;28;20099;-84
2022/07/14 11:39:46;;;;;;;2.50;0.30;;;24.40;99.70;;;;;;5030776;28;20049;-85
2022/07/14 11:42:17;;;;;;;2.25;0.60;;;24.90;98.90;;;;;;5032504;28;20436;-83
2022/07/14 11:44:43;;;;;;;0.75;0.20;;;25.20;98.00;;;;;;5029044;28;20041;-84
2022/07/14 11:47:29;;;;;;;2.42;0.40;;;25.50;96.00;;;;;;5014599;28;20075;-84
2022/07/14 11:50:04;;;;;;;1.27;0.22;;;25.70;96.30;;;;;;5014292;28;20041;-82
2022/07/14 11:52:35;;;;;;;1.57;0.30;;;25.80;96.20;;;;;;5030201;28;20056;-84
2022/07/14 11:55:04;;;;;;;2.22;0.30;;;25.70;96.50;;;;;;5031196;28;20025;-85
2022/07/14 11:57:30;;;;;;;1.05;0.20;;;25.60;96.80;;;;;;5029526;28;20037;-85
2022/07/14 12:00:08;;;;;;;2.42;0.30;;;25.40;96.70;;;;;;5032276;28;20082;-85
2022/07/14 12:02:51;;;;;;;2.22;0.30;;;25.30;96.10;;;;;;5031970;28;20048;-85
2022/07/14 12:05:17;;;;;;;2.17;0.20;;;25.30;96.70;;;;;;5033508;28;20124;-85
2022/07/14 12:07:48;;;;;;;2.35;0.35;;;25.20;97.50;;;;;;5015248;28;20144;-85
2022/07/14 12:10:32;;;;;;;4.32;0.45;;;25.10;96.40;;;;;;5032876;28;20121;-84
2022/07/14 12:12:58;;;;;;;2.92;0.38;;;25.30;96.20;;;;;;5030692;28;20036;-85
2022/07/14 12:15:26;;;;;;;2.30;0.40;;;25.20;96.90;;;;;;5030173;28;20049;-85
2022/07/14 12:17:53;;;;;;;2.15;0.30;;;25.30;96.50;;;;;;5014931;28;20040;-85
2022/07/14 12:20:20;;;;;;;2.20;0.30;;;25.50;96.60;;;;;;5032120;28;20048;-85
2022/07/14 12:22:55;;;;;;;1.95;0.30;;;25.80;96.30;;;;;;4998000;28;20052;-84
2022/07/14 12:25:35;;;;;;;2.40;0.20;;;26.30;96.90;;;;;;5029748;28;20083;-84
2022/07/14 12:28:07;;;;;;;3.03;0.30;;;26.90;96.60;;;;;;5029863;28;20033;-85
2022/07/14 12:30:43;;;;;;;2.97;0.50;;;27.10;95.60;;;;;;5030036;28;20041;-85
2022/07/14 12:33:09;;;;;;;;;;;27.30;95.80;;;;;;5015494;28;20041;-85
2022/07/14 12:35:36;;;;;;;2.40;0.30;;;27.40;95.90;;;;;;5020260;28;19924;-84
2022/07/14 12:38:02;;;;;;;2.75;0.38;;;27.40;96.20;;;;;;5030727;28;20132;-85
2022/07/14 12:40:28;;;;;;;2.78;0.40;;;27.10;96.40;;;;;;5030502;28;20102;-84
2022/07/14 12:42:54;;;;;;;4.93;0.35;;;26.60;95.90;;;;;;5031880;28;20069;-85
2022/07/14 12:45:20;;;;;;;4.03;0.60;;;26.20;96.20;;;;;;5032569;28;20091;-84
2022/07/14 12:48:01;;;;;;;4.10;0.35;;;26.20;96.40;;;;;;5034768;28;20033;-85
2022/07/14 12:50:31;;;;;;;1.58;0.30;;;25.70;96.40;;;;;;5029556;28;20049;-85
2022/07/14 12:52:58;;;;;;;2.25;0.30;;;25.40;96.80;;;;;;5026366;28;20056;-84
2022/07/14 12:55:31;;;;;;;2.85;0.28;;;24.90;96.00;;;;;;5035922;28;20033;-85
2022/07/14 12:58:05;;;;;;;4.00;0.40;;;24.50;96.60;;;;;;5027619;28;20117;-86
2022/07/14 13:00:32;;;;;;;2.25;0.32;;;24.30;96.70;;;;;;5027922;28;20116;-85
2022/07/14 13:03:16;;;;;;;2.58;0.30;;;24.00;96.70;;;;;;5031166;28;20037;-85
2022/07/14 13:05:51;;;;;;;4.10;0.73;;;23.80;97.00;;;;;;5031933;28;20044;-85
2022/07/14 13:08:35;;;;;;;3.20;0.30;;;23.70;96.80;;;;;;5031732;28;20037;-85
2022/07/14 13:11:09;;;;;;;1.75;0.30;;;23.70;97.90;;;;;;5035567;28;20037;-85
2022/07/14 13:13:54;;;;;;;2.10;0.38;;;24.10;97.60;;;;;;5033916;28;20075;-83